sensor_id;sensor_type;location;lat;lon;timestamp;P1;durP1;ratioP1;P2;durP2;ratioP2
57029;SDS011;42920;45.306;20.448;2022-07-29T00:00:43;17.08;;;10.23;;
57029;SDS011;42920;45.306;20.448;2022-07-29T00:03:12;17.58;;;11.65;;
57029;SDS011;42920;45.306;20.448;2022-07-29T00:05:40;15.98;;;10.20;;
57029;SDS011;42920;45.306;20.448;2022-07-29T00:08:06;20.77;;;9.98;;
57029;SDS011;42920;45.306;20.448;2022-07-29T00:10:33;16.75;;;10.07;;
57029;SDS011;42920;45.306;20.448;2022-07-29T00:12:59;22.08;;;10.75;;
57029;SDS011;42920;45.306;20.448;2022-07-29T00:15:25;14.82;;;10.15;;
57029;SDS011;42920;45.306;20.448;2022-07-29T00:17:50;14.23;;;9.48;;
57029;SDS011;42920;45.306;20.448;2022-07-29T00:20:16;16.35;;;10.43;;
57029;SDS011;42920;45.306;20.448;2022-07-29T00:22:42;13.18;;;9.18;;
57029;SDS011;42920;45.306;20.448;2022-07-29T00:25:08;12.18;;;9.88;;
57029;SDS011;42920;45.306;20.448;2022-07-29T00:27:37;19.25;;;9.07;;
57029;SDS011;42920;45.306;20.448;2022-07-29T00:30:03;11.07;;;8.73;;
57029;SDS011;42920;45.306;20.448;2022-07-29T00:32:30;11.48;;;9.05;;
57029;SDS011;42920;45.306;20.448;2022-07-29T00:34:55;12.07;;;8.57;;
57029;SDS011;42920;45.306;20.448;2022-07-29T00:37:40;10.05;;;8.55;;
57029;SDS011;42920;45.306;20.448;2022-07-29T00:40:06;11.05;;;8.50;;
57029;SDS011;42920;45.306;20.448;2022-07-29T00:42:53;14.25;;;9.68;;
57029;SDS011;42920;45.306;20.448;2022-07-29T00:45:18;13.38;;;9.07;;
57029;SDS011;42920;45.306;20.448;2022-07-29T00:47:44;19.17;;;9.30;;
57029;SDS011;42920;45.306;20.448;2022-07-29T00:50:11;17.80;;;9.00;;
57029;SDS011;42920;45.306;20.448;2022-07-29T00:52:38;22.63;;;10.27;;
57029;SDS011;42920;45.306;20.448;2022-07-29T00:55:06;15.93;;;10.13;;
57029;SDS011;42920;45.306;20.448;2022-07-29T00:57:37;24.38;;;10.32;;
57029;SDS011;42920;45.306;20.448;2022-07-29T01:00:04;22.38;;;10.65;;
57029;SDS011;42920;45.306;20.448;2022-07-29T01:02:32;22.65;;;10.45;;
57029;SDS011;42920;45.306;20.448;2022-07-29T01:04:59;12.60;;;9.32;;
57029;SDS011;42920;45.306;20.448;2022-07-29T01:07:25;18.60;;;9.48;;
57029;SDS011;42920;45.306;20.448;2022-07-29T01:09:52;18.70;;;10.43;;
57029;SDS011;42920;45.306;20.448;2022-07-29T01:12:21;15.18;;;10.55;;
57029;SDS011;42920;45.306;20.448;2022-07-29T01:14:49;18.95;;;11.02;;
57029;SDS011;42920;45.306;20.448;2022-07-29T01:17:24;18.17;;;10.77;;
57029;SDS011;42920;45.306;20.448;2022-07-29T01:20:51;16.42;;;10.57;;
57029;SDS011;42920;45.306;20.448;2022-07-29T01:33:27;14.38;;;10.68;;
57029;SDS011;42920;45.306;20.448;2022-07-29T01:36:14;18.65;;;10.88;;
57029;SDS011;42920;45.306;20.448;2022-07-29T01:38:56;13.63;;;10.95;;
57029;SDS011;42920;45.306;20.448;2022-07-29T01:41:27;13.23;;;10.85;;
57029;SDS011;42920;45.306;20.448;2022-07-29T01:43:57;14.90;;;10.95;;
57029;SDS011;42920;45.306;20.448;2022-07-29T01:46:31;12.70;;;10.48;;
57029;SDS011;42920;45.306;20.448;2022-07-29T01:49:02;14.60;;;11.35;;
57029;SDS011;42920;45.306;20.448;2022-07-29T01:51:43;13.40;;;9.70;;
57029;SDS011;42920;45.306;20.448;2022-07-29T01:54:20;12.77;;;10.60;;
57029;SDS011;42920;45.306;20.448;2022-07-29T01:57:09;15.80;;;10.32;;
57029;SDS011;42920;45.306;20.448;2022-07-29T01:59:38;12.93;;;10.40;;
57029;SDS011;42920;45.306;20.448;2022-07-29T02:02:06;13.52;;;10.52;;
57029;SDS011;42920;45.306;20.448;2022-07-29T02:04:33;12.00;;;10.25;;
57029;SDS011;42920;45.306;20.448;2022-07-29T02:07:03;26.17;;;12.35;;
57029;SDS011;42920;45.306;20.448;2022-07-29T02:09:33;14.20;;;11.05;;
57029;SDS011;42920;45.306;20.448;2022-07-29T02:12:01;15.85;;;11.98;;
57029;SDS011;42920;45.306;20.448;2022-07-29T02:14:30;14.32;;;11.20;;
57029;SDS011;42920;45.306;20.448;2022-07-29T02:17:08;16.92;;;12.10;;
57029;SDS011;42920;45.306;20.448;2022-07-29T02:19:37;13.18;;;11.77;;
57029;SDS011;42920;45.306;20.448;2022-07-29T02:22:04;15.18;;;11.23;;
57029;SDS011;42920;45.306;20.448;2022-07-29T02:24:32;12.07;;;10.80;;
57029;SDS011;42920;45.306;20.448;2022-07-29T02:26:59;36.67;;;12.02;;
57029;SDS011;42920;45.306;20.448;2022-07-29T02:29:28;13.65;;;11.50;;
57029;SDS011;42920;45.306;20.448;2022-07-29T02:31:56;16.73;;;11.80;;
57029;SDS011;42920;45.306;20.448;2022-07-29T02:34:24;12.52;;;10.95;;
57029;SDS011;42920;45.306;20.448;2022-07-29T02:36:50;14.35;;;11.40;;
57029;SDS011;42920;45.306;20.448;2022-07-29T02:39:19;16.13;;;11.63;;
57029;SDS011;42920;45.306;20.448;2022-07-29T02:44:22;14.25;;;11.52;;
57029;SDS011;42920;45.306;20.448;2022-07-29T02:46:52;16.77;;;11.20;;
57029;SDS011;42920;45.306;20.448;2022-07-29T02:52:24;16.73;;;11.52;;
57029;SDS011;42920;45.306;20.448;2022-07-29T02:55:00;17.15;;;12.00;;
57029;SDS011;42920;45.306;20.448;2022-07-29T02:57:33;15.82;;;11.68;;
57029;SDS011;42920;45.306;20.448;2022-07-29T03:00:05;16.98;;;11.60;;
57029;SDS011;42920;45.306;20.448;2022-07-29T03:02:34;16.50;;;11.35;;
57029;SDS011;42920;45.306;20.448;2022-07-29T03:05:03;14.88;;;11.45;;
57029;SDS011;42920;45.306;20.448;2022-07-29T03:07:31;15.35;;;11.85;;
57029;SDS011;42920;45.306;20.448;2022-07-29T03:09:58;13.93;;;10.95;;
57029;SDS011;42920;45.306;20.448;2022-07-29T03:12:25;16.45;;;11.98;;
57029;SDS011;42920;45.306;20.448;2022-07-29T03:14:52;14.70;;;10.55;;
57029;SDS011;42920;45.306;20.448;2022-07-29T03:17:18;14.38;;;10.48;;
57029;SDS011;42920;45.306;20.448;2022-07-29T03:19:44;15.18;;;10.70;;
57029;SDS011;42920;45.306;20.448;2022-07-29T03:22:10;15.23;;;12.00;;
57029;SDS011;42920;45.306;20.448;2022-07-29T03:24:37;15.10;;;11.93;;
57029;SDS011;42920;45.306;20.448;2022-07-29T03:27:03;15.80;;;12.35;;
57029;SDS011;42920;45.306;20.448;2022-07-29T03:29:30;16.13;;;12.65;;
57029;SDS011;42920;45.306;20.448;2022-07-29T03:31:56;18.17;;;11.90;;
57029;SDS011;42920;45.306;20.448;2022-07-29T03:34:22;15.13;;;12.20;;
57029;SDS011;42920;45.306;20.448;2022-07-29T03:36:48;18.13;;;12.98;;
57029;SDS011;42920;45.306;20.448;2022-07-29T03:39:15;17.95;;;13.10;;
57029;SDS011;42920;45.306;20.448;2022-07-29T03:41:45;22.02;;;13.57;;
57029;SDS011;42920;45.306;20.448;2022-07-29T03:44:13;15.05;;;12.75;;
57029;SDS011;42920;45.306;20.448;2022-07-29T03:46:41;22.00;;;13.68;;
57029;SDS011;42920;45.306;20.448;2022-07-29T03:49:09;16.75;;;12.25;;
57029;SDS011;42920;45.306;20.448;2022-07-29T03:51:37;18.55;;;13.57;;
57029;SDS011;42920;45.306;20.448;2022-07-29T03:54:03;17.42;;;13.45;;
57029;SDS011;42920;45.306;20.448;2022-07-29T03:56:31;14.57;;;12.40;;
57029;SDS011;42920;45.306;20.448;2022-07-29T03:58:59;19.23;;;13.48;;
57029;SDS011;42920;45.306;20.448;2022-07-29T04:01:27;20.83;;;14.00;;
57029;SDS011;42920;45.306;20.448;2022-07-29T04:03:54;16.83;;;13.68;;
57029;SDS011;42920;45.306;20.448;2022-07-29T04:06:20;21.40;;;13.27;;
57029;SDS011;42920;45.306;20.448;2022-07-29T04:08:46;22.30;;;13.63;;
57029;SDS011;42920;45.306;20.448;2022-07-29T04:11:12;21.77;;;14.50;;
57029;SDS011;42920;45.306;20.448;2022-07-29T04:13:38;18.42;;;15.00;;
57029;SDS011;42920;45.306;20.448;2022-07-29T04:16:04;20.23;;;13.57;;
57029;SDS011;42920;45.306;20.448;2022-07-29T04:18:29;18.55;;;12.10;;
57029;SDS011;42920;45.306;20.448;2022-07-29T04:20:55;14.43;;;11.48;;
57029;SDS011;42920;45.306;20.448;2022-07-29T04:23:24;14.30;;;11.50;;
57029;SDS011;42920;45.306;20.448;2022-07-29T04:25:50;17.38;;;12.80;;
57029;SDS011;42920;45.306;20.448;2022-07-29T04:28:15;15.93;;;11.50;;
57029;SDS011;42920;45.306;20.448;2022-07-29T04:30:41;15.45;;;11.27;;
57029;SDS011;42920;45.306;20.448;2022-07-29T04:33:07;15.35;;;11.35;;
57029;SDS011;42920;45.306;20.448;2022-07-29T04:35:34;13.93;;;11.00;;
57029;SDS011;42920;45.306;20.448;2022-07-29T04:38:01;16.42;;;11.80;;
57029;SDS011;42920;45.306;20.448;2022-07-29T04:40:27;15.45;;;11.38;;
57029;SDS011;42920;45.306;20.448;2022-07-29T04:42:53;17.08;;;12.40;;
57029;SDS011;42920;45.306;20.448;2022-07-29T04:45:19;14.40;;;11.15;;
57029;SDS011;42920;45.306;20.448;2022-07-29T04:47:46;13.80;;;11.25;;
57029;SDS011;42920;45.306;20.448;2022-07-29T04:50:12;13.23;;;10.95;;
57029;SDS011;42920;45.306;20.448;2022-07-29T04:52:38;12.73;;;11.23;;
57029;SDS011;42920;45.306;20.448;2022-07-29T04:55:04;13.35;;;10.35;;
57029;SDS011;42920;45.306;20.448;2022-07-29T04:57:30;12.68;;;9.20;;
57029;SDS011;42920;45.306;20.448;2022-07-29T04:59:56;17.48;;;9.35;;
57029;SDS011;42920;45.306;20.448;2022-07-29T05:02:21;9.57;;;7.65;;
57029;SDS011;42920;45.306;20.448;2022-07-29T05:04:47;8.32;;;6.85;;
57029;SDS011;42920;45.306;20.448;2022-07-29T05:07:13;12.38;;;7.35;;
57029;SDS011;42920;45.306;20.448;2022-07-29T05:09:39;10.27;;;7.25;;
57029;SDS011;42920;45.306;20.448;2022-07-29T05:12:06;12.18;;;7.68;;
57029;SDS011;42920;45.306;20.448;2022-07-29T05:14:32;10.25;;;7.45;;
57029;SDS011;42920;45.306;20.448;2022-07-29T05:16:58;9.40;;;6.55;;
57029;SDS011;42920;45.306;20.448;2022-07-29T05:19:24;11.60;;;5.88;;
57029;SDS011;42920;45.306;20.448;2022-07-29T05:21:50;11.93;;;6.60;;
57029;SDS011;42920;45.306;20.448;2022-07-29T05:24:15;8.20;;;5.80;;
57029;SDS011;42920;45.306;20.448;2022-07-29T05:26:41;12.48;;;6.10;;
57029;SDS011;42920;45.306;20.448;2022-07-29T05:29:07;8.27;;;6.30;;
57029;SDS011;42920;45.306;20.448;2022-07-29T05:31:33;7.03;;;5.28;;
57029;SDS011;42920;45.306;20.448;2022-07-29T05:33:59;10.00;;;5.88;;
57029;SDS011;42920;45.306;20.448;2022-07-29T05:36:25;11.85;;;5.55;;
57029;SDS011;42920;45.306;20.448;2022-07-29T05:38:51;7.97;;;5.25;;
57029;SDS011;42920;45.306;20.448;2022-07-29T05:41:18;8.63;;;4.95;;
57029;SDS011;42920;45.306;20.448;2022-07-29T05:43:44;6.88;;;4.93;;
57029;SDS011;42920;45.306;20.448;2022-07-29T05:46:09;9.70;;;4.97;;
57029;SDS011;42920;45.306;20.448;2022-07-29T05:48:35;7.88;;;4.88;;
57029;SDS011;42920;45.306;20.448;2022-07-29T05:51:01;6.55;;;5.25;;
57029;SDS011;42920;45.306;20.448;2022-07-29T05:53:27;16.80;;;6.18;;
57029;SDS011;42920;45.306;20.448;2022-07-29T05:55:53;11.35;;;5.22;;
57029;SDS011;42920;45.306;20.448;2022-07-29T05:58:19;7.45;;;5.10;;
57029;SDS011;42920;45.306;20.448;2022-07-29T06:00:45;8.02;;;5.07;;
57029;SDS011;42920;45.306;20.448;2022-07-29T06:03:11;7.53;;;4.97;;
57029;SDS011;42920;45.306;20.448;2022-07-29T06:05:37;8.68;;;5.30;;
57029;SDS011;42920;45.306;20.448;2022-07-29T06:08:03;8.73;;;4.85;;
57029;SDS011;42920;45.306;20.448;2022-07-29T06:10:32;7.85;;;5.13;;
57029;SDS011;42920;45.306;20.448;2022-07-29T06:13:00;17.00;;;5.40;;
57029;SDS011;42920;45.306;20.448;2022-07-29T06:15:25;13.80;;;5.95;;
57029;SDS011;42920;45.306;20.448;2022-07-29T06:17:51;9.27;;;5.18;;
57029;SDS011;42920;45.306;20.448;2022-07-29T06:20:17;9.82;;;4.55;;
57029;SDS011;42920;45.306;20.448;2022-07-29T06:22:43;7.13;;;4.47;;
57029;SDS011;42920;45.306;20.448;2022-07-29T06:25:09;7.75;;;5.35;;
57029;SDS011;42920;45.306;20.448;2022-07-29T06:27:35;12.00;;;4.88;;
57029;SDS011;42920;45.306;20.448;2022-07-29T06:30:01;8.82;;;5.28;;
57029;SDS011;42920;45.306;20.448;2022-07-29T06:32:27;12.48;;;5.75;;
57029;SDS011;42920;45.306;20.448;2022-07-29T06:34:53;12.68;;;5.05;;
57029;SDS011;42920;45.306;20.448;2022-07-29T06:37:19;9.07;;;5.75;;
57029;SDS011;42920;45.306;20.448;2022-07-29T06:39:44;8.77;;;5.40;;
57029;SDS011;42920;45.306;20.448;2022-07-29T06:42:10;7.57;;;5.65;;
57029;SDS011;42920;45.306;20.448;2022-07-29T06:44:36;8.90;;;5.20;;
57029;SDS011;42920;45.306;20.448;2022-07-29T06:47:02;9.02;;;5.43;;
57029;SDS011;42920;45.306;20.448;2022-07-29T06:49:28;7.80;;;5.38;;
57029;SDS011;42920;45.306;20.448;2022-07-29T06:51:54;6.55;;;5.20;;
57029;SDS011;42920;45.306;20.448;2022-07-29T06:54:20;8.82;;;5.60;;
57029;SDS011;42920;45.306;20.448;2022-07-29T06:56:46;7.00;;;5.65;;
57029;SDS011;42920;45.306;20.448;2022-07-29T06:59:13;9.48;;;5.43;;
57029;SDS011;42920;45.306;20.448;2022-07-29T07:01:40;6.85;;;4.90;;
57029;SDS011;42920;45.306;20.448;2022-07-29T07:04:07;9.20;;;5.35;;
57029;SDS011;42920;45.306;20.448;2022-07-29T07:06:34;15.02;;;5.30;;
57029;SDS011;42920;45.306;20.448;2022-07-29T07:09:00;11.70;;;6.13;;
57029;SDS011;42920;45.306;20.448;2022-07-29T07:11:26;8.43;;;6.10;;
57029;SDS011;42920;45.306;20.448;2022-07-29T07:13:53;11.73;;;5.55;;
57029;SDS011;42920;45.306;20.448;2022-07-29T07:16:18;15.23;;;5.63;;
57029;SDS011;42920;45.306;20.448;2022-07-29T07:18:44;9.27;;;5.68;;
57029;SDS011;42920;45.306;20.448;2022-07-29T07:21:10;10.35;;;5.85;;
57029;SDS011;42920;45.306;20.448;2022-07-29T07:23:36;9.02;;;5.95;;
57029;SDS011;42920;45.306;20.448;2022-07-29T07:26:02;9.23;;;5.35;;
57029;SDS011;42920;45.306;20.448;2022-07-29T07:28:28;10.02;;;5.47;;
57029;SDS011;42920;45.306;20.448;2022-07-29T07:30:54;8.15;;;6.07;;
57029;SDS011;42920;45.306;20.448;2022-07-29T07:33:19;9.27;;;5.47;;
57029;SDS011;42920;45.306;20.448;2022-07-29T07:35:45;10.43;;;6.00;;
57029;SDS011;42920;45.306;20.448;2022-07-29T07:38:11;8.63;;;5.65;;
57029;SDS011;42920;45.306;20.448;2022-07-29T07:40:37;9.38;;;5.20;;
57029;SDS011;42920;45.306;20.448;2022-07-29T07:43:03;10.05;;;5.45;;
57029;SDS011;42920;45.306;20.448;2022-07-29T07:45:29;6.85;;;5.47;;
57029;SDS011;42920;45.306;20.448;2022-07-29T07:47:57;9.25;;;5.25;;
57029;SDS011;42920;45.306;20.448;2022-07-29T07:50:23;9.27;;;5.93;;
57029;SDS011;42920;45.306;20.448;2022-07-29T07:52:50;11.13;;;6.25;;
57029;SDS011;42920;45.306;20.448;2022-07-29T07:55:17;9.15;;;5.68;;
57029;SDS011;42920;45.306;20.448;2022-07-29T07:57:44;10.13;;;6.20;;
57029;SDS011;42920;45.306;20.448;2022-07-29T08:00:10;10.98;;;5.28;;
57029;SDS011;42920;45.306;20.448;2022-07-29T08:02:38;11.02;;;7.15;;
57029;SDS011;42920;45.306;20.448;2022-07-29T08:05:04;9.02;;;5.85;;
57029;SDS011;42920;45.306;20.448;2022-07-29T08:07:31;10.80;;;5.97;;
57029;SDS011;42920;45.306;20.448;2022-07-29T08:09:57;14.55;;;6.50;;
57029;SDS011;42920;45.306;20.448;2022-07-29T08:12:23;16.08;;;6.60;;
57029;SDS011;42920;45.306;20.448;2022-07-29T08:14:49;10.35;;;6.13;;
57029;SDS011;42920;45.306;20.448;2022-07-29T08:17:15;8.07;;;5.97;;
57029;SDS011;42920;45.306;20.448;2022-07-29T08:19:40;6.85;;;5.85;;
57029;SDS011;42920;45.306;20.448;2022-07-29T08:22:06;6.78;;;6.07;;
57029;SDS011;42920;45.306;20.448;2022-07-29T08:24:32;8.23;;;5.63;;
57029;SDS011;42920;45.306;20.448;2022-07-29T08:27:17;8.20;;;6.50;;
57029;SDS011;42920;45.306;20.448;2022-07-29T08:29:44;7.03;;;5.97;;
57029;SDS011;42920;45.306;20.448;2022-07-29T08:32:10;8.18;;;6.65;;
57029;SDS011;42920;45.306;20.448;2022-07-29T08:34:35;9.30;;;6.38;;
57029;SDS011;42920;45.306;20.448;2022-07-29T08:37:01;13.95;;;7.45;;
57029;SDS011;42920;45.306;20.448;2022-07-29T08:39:27;8.27;;;6.15;;
57029;SDS011;42920;45.306;20.448;2022-07-29T08:41:53;9.77;;;6.75;;
57029;SDS011;42920;45.306;20.448;2022-07-29T08:44:20;18.58;;;6.97;;
57029;SDS011;42920;45.306;20.448;2022-07-29T08:46:46;12.10;;;7.32;;
57029;SDS011;42920;45.306;20.448;2022-07-29T08:49:13;14.07;;;7.03;;
57029;SDS011;42920;45.306;20.448;2022-07-29T08:51:39;10.23;;;7.22;;
57029;SDS011;42920;45.306;20.448;2022-07-29T08:54:07;14.55;;;8.05;;
57029;SDS011;42920;45.306;20.448;2022-07-29T08:56:34;10.40;;;7.18;;
57029;SDS011;42920;45.306;20.448;2022-07-29T08:59:02;8.10;;;7.15;;
57029;SDS011;42920;45.306;20.448;2022-07-29T09:01:30;9.70;;;7.30;;
57029;SDS011;42920;45.306;20.448;2022-07-29T09:03:59;11.45;;;7.05;;
57029;SDS011;42920;45.306;20.448;2022-07-29T09:06:27;8.35;;;6.60;;
57029;SDS011;42920;45.306;20.448;2022-07-29T09:08:58;10.57;;;7.70;;
57029;SDS011;42920;45.306;20.448;2022-07-29T09:11:24;8.57;;;6.60;;
57029;SDS011;42920;45.306;20.448;2022-07-29T09:13:50;14.88;;;7.53;;
57029;SDS011;42920;45.306;20.448;2022-07-29T09:16:16;12.40;;;7.50;;
57029;SDS011;42920;45.306;20.448;2022-07-29T09:18:43;11.15;;;7.07;;
57029;SDS011;42920;45.306;20.448;2022-07-29T09:21:12;21.40;;;8.23;;
57029;SDS011;42920;45.306;20.448;2022-07-29T09:24:05;11.43;;;7.30;;
57029;SDS011;42920;45.306;20.448;2022-07-29T09:26:33;9.55;;;7.68;;
57029;SDS011;42920;45.306;20.448;2022-07-29T09:29:01;10.68;;;8.82;;
57029;SDS011;42920;45.306;20.448;2022-07-29T09:31:38;10.23;;;7.93;;
57029;SDS011;42920;45.306;20.448;2022-07-29T09:34:06;8.68;;;7.70;;
57029;SDS011;42920;45.306;20.448;2022-07-29T09:36:40;10.95;;;8.13;;
57029;SDS011;42920;45.306;20.448;2022-07-29T09:39:12;9.27;;;7.88;;
57029;SDS011;42920;45.306;20.448;2022-07-29T09:41:49;12.32;;;8.13;;
57029;SDS011;42920;45.306;20.448;2022-07-29T09:44:19;11.23;;;8.23;;
57029;SDS011;42920;45.306;20.448;2022-07-29T09:49:21;13.85;;;8.65;;
57029;SDS011;42920;45.306;20.448;2022-07-29T09:51:47;9.07;;;8.18;;
57029;SDS011;42920;45.306;20.448;2022-07-29T09:56:53;12.55;;;7.32;;
57029;SDS011;42920;45.306;20.448;2022-07-29T09:59:20;12.13;;;7.95;;
57029;SDS011;42920;45.306;20.448;2022-07-29T10:01:49;12.98;;;8.70;;
57029;SDS011;42920;45.306;20.448;2022-07-29T10:04:15;11.10;;;8.48;;
57029;SDS011;42920;45.306;20.448;2022-07-29T10:06:57;11.13;;;7.63;;
57029;SDS011;42920;45.306;20.448;2022-07-29T10:09:25;11.18;;;8.60;;
57029;SDS011;42920;45.306;20.448;2022-07-29T10:14:30;8.52;;;7.57;;
57029;SDS011;42920;45.306;20.448;2022-07-29T10:16:59;11.32;;;9.27;;
57029;SDS011;42920;45.306;20.448;2022-07-29T10:19:29;12.88;;;8.50;;
57029;SDS011;42920;45.306;20.448;2022-07-29T10:21:57;16.45;;;9.27;;
57029;SDS011;42920;45.306;20.448;2022-07-29T10:24:24;10.48;;;9.38;;
57029;SDS011;42920;45.306;20.448;2022-07-29T10:26:53;13.93;;;8.73;;
57029;SDS011;42920;45.306;20.448;2022-07-29T10:29:20;9.70;;;8.50;;
57029;SDS011;42920;45.306;20.448;2022-07-29T10:31:56;11.13;;;9.00;;
57029;SDS011;42920;45.306;20.448;2022-07-29T10:43:22;11.43;;;9.05;;
57029;SDS011;42920;45.306;20.448;2022-07-29T10:45:56;13.88;;;9.05;;
57029;SDS011;42920;45.306;20.448;2022-07-29T10:48:24;11.55;;;8.93;;
57029;SDS011;42920;45.306;20.448;2022-07-29T10:50:54;11.80;;;10.00;;
57029;SDS011;42920;45.306;20.448;2022-07-29T10:53:45;13.38;;;9.07;;
57029;SDS011;42920;45.306;20.448;2022-07-29T10:56:29;12.75;;;9.63;;
57029;SDS011;42920;45.306;20.448;2022-07-29T11:01:45;17.77;;;9.45;;
57029;SDS011;42920;45.306;20.448;2022-07-29T11:04:15;16.48;;;10.77;;
57029;SDS011;42920;45.306;20.448;2022-07-29T11:07:14;14.18;;;9.70;;
57029;SDS011;42920;45.306;20.448;2022-07-29T11:09:33;12.20;;;9.30;;
57029;SDS011;42920;45.306;20.448;2022-07-29T11:11:59;13.38;;;9.77;;
57029;SDS011;42920;45.306;20.448;2022-07-29T11:17:15;12.98;;;9.23;;
57029;SDS011;42920;45.306;20.448;2022-07-29T11:19:40;10.60;;;9.55;;
57029;SDS011;42920;45.306;20.448;2022-07-29T11:22:07;13.80;;;9.90;;
57029;SDS011;42920;45.306;20.448;2022-07-29T11:24:35;11.57;;;9.13;;
57029;SDS011;42920;45.306;20.448;2022-07-29T11:27:19;13.77;;;9.20;;
57029;SDS011;42920;45.306;20.448;2022-07-29T11:29:51;14.70;;;9.10;;
57029;SDS011;42920;45.306;20.448;2022-07-29T11:32:22;11.23;;;10.00;;
57029;SDS011;42920;45.306;20.448;2022-07-29T11:35:09;13.35;;;9.65;;
57029;SDS011;42920;45.306;20.448;2022-07-29T11:37:46;15.15;;;9.93;;
57029;SDS011;42920;45.306;20.448;2022-07-29T11:40:32;16.00;;;10.00;;
57029;SDS011;42920;45.306;20.448;2022-07-29T11:42:58;10.88;;;9.63;;
57029;SDS011;42920;45.306;20.448;2022-07-29T11:45:24;14.88;;;10.32;;
57029;SDS011;42920;45.306;20.448;2022-07-29T11:47:55;12.10;;;10.00;;
57029;SDS011;42920;45.306;20.448;2022-07-29T11:52:59;12.68;;;9.60;;
57029;SDS011;42920;45.306;20.448;2022-07-29T11:55:25;11.10;;;10.00;;
57029;SDS011;42920;45.306;20.448;2022-07-29T11:57:52;14.43;;;10.55;;
57029;SDS011;42920;45.306;20.448;2022-07-29T12:02:57;12.57;;;9.80;;
57029;SDS011;42920;45.306;20.448;2022-07-29T12:05:34;15.27;;;9.13;;
57029;SDS011;42920;45.306;20.448;2022-07-29T12:08:08;11.52;;;10.43;;
57029;SDS011;42920;45.306;20.448;2022-07-29T12:10:34;11.48;;;10.05;;
57029;SDS011;42920;45.306;20.448;2022-07-29T12:13:01;17.60;;;11.00;;
57029;SDS011;42920;45.306;20.448;2022-07-29T12:15:26;11.82;;;10.50;;
57029;SDS011;42920;45.306;20.448;2022-07-29T12:17:52;14.45;;;11.13;;
57029;SDS011;42920;45.306;20.448;2022-07-29T12:20:22;10.80;;;9.70;;
57029;SDS011;42920;45.306;20.448;2022-07-29T12:22:53;12.63;;;10.25;;
57029;SDS011;42920;45.306;20.448;2022-07-29T12:25:20;12.32;;;9.40;;
57029;SDS011;42920;45.306;20.448;2022-07-29T12:27:56;11.45;;;10.15;;
57029;SDS011;42920;45.306;20.448;2022-07-29T12:30:33;12.93;;;10.50;;
57029;SDS011;42920;45.306;20.448;2022-07-29T12:33:19;11.98;;;9.98;;
57029;SDS011;42920;45.306;20.448;2022-07-29T12:35:46;10.80;;;9.70;;
57029;SDS011;42920;45.306;20.448;2022-07-29T12:38:14;14.27;;;10.15;;
57029;SDS011;42920;45.306;20.448;2022-07-29T12:40:40;10.93;;;9.57;;
57029;SDS011;42920;45.306;20.448;2022-07-29T12:45:35;10.63;;;8.63;;
57029;SDS011;42920;45.306;20.448;2022-07-29T12:48:04;11.15;;;8.95;;
57029;SDS011;42920;45.306;20.448;2022-07-29T12:50:33;12.95;;;9.70;;
57029;SDS011;42920;45.306;20.448;2022-07-29T12:53:19;10.45;;;9.35;;
57029;SDS011;42920;45.306;20.448;2022-07-29T12:55:46;12.73;;;9.02;;
57029;SDS011;42920;45.306;20.448;2022-07-29T13:01:07;10.88;;;9.57;;
57029;SDS011;42920;45.306;20.448;2022-07-29T13:03:41;13.70;;;8.95;;
57029;SDS011;42920;45.306;20.448;2022-07-29T13:09:06;13.02;;;9.60;;
57029;SDS011;42920;45.306;20.448;2022-07-29T13:11:34;11.23;;;8.98;;
57029;SDS011;42920;45.306;20.448;2022-07-29T13:14:05;9.88;;;8.48;;
57029;SDS011;42920;45.306;20.448;2022-07-29T13:16:33;9.65;;;8.65;;
57029;SDS011;42920;45.306;20.448;2022-07-29T13:19:06;9.35;;;8.45;;
57029;SDS011;42920;45.306;20.448;2022-07-29T13:21:34;10.82;;;8.40;;
57029;SDS011;42920;45.306;20.448;2022-07-29T13:24:00;12.40;;;8.60;;
57029;SDS011;42920;45.306;20.448;2022-07-29T13:26:26;10.15;;;8.45;;
57029;SDS011;42920;45.306;20.448;2022-07-29T13:28:52;10.23;;;7.57;;
57029;SDS011;42920;45.306;20.448;2022-07-29T13:31:19;13.63;;;7.78;;
57029;SDS011;42920;45.306;20.448;2022-07-29T13:33:45;10.10;;;7.60;;
57029;SDS011;42920;45.306;20.448;2022-07-29T13:36:12;8.68;;;7.85;;
57029;SDS011;42920;45.306;20.448;2022-07-29T13:38:38;11.07;;;8.77;;
57029;SDS011;42920;45.306;20.448;2022-07-29T13:41:04;9.25;;;8.00;;
57029;SDS011;42920;45.306;20.448;2022-07-29T13:43:30;9.38;;;8.48;;
57029;SDS011;42920;45.306;20.448;2022-07-29T13:45:56;11.10;;;8.38;;
57029;SDS011;42920;45.306;20.448;2022-07-29T13:48:22;16.70;;;8.68;;
57029;SDS011;42920;45.306;20.448;2022-07-29T13:50:47;8.85;;;7.35;;
57029;SDS011;42920;45.306;20.448;2022-07-29T13:53:13;9.82;;;8.50;;
57029;SDS011;42920;45.306;20.448;2022-07-29T13:55:39;11.73;;;8.18;;
57029;SDS011;42920;45.306;20.448;2022-07-29T13:58:05;9.45;;;8.45;;
57029;SDS011;42920;45.306;20.448;2022-07-29T14:00:30;11.10;;;8.55;;
57029;SDS011;42920;45.306;20.448;2022-07-29T14:02:56;11.20;;;9.10;;
57029;SDS011;42920;45.306;20.448;2022-07-29T14:05:22;9.65;;;8.60;;
57029;SDS011;42920;45.306;20.448;2022-07-29T14:07:48;8.80;;;7.90;;
57029;SDS011;42920;45.306;20.448;2022-07-29T14:10:14;10.20;;;8.60;;
57029;SDS011;42920;45.306;20.448;2022-07-29T14:12:39;10.13;;;8.88;;
57029;SDS011;42920;45.306;20.448;2022-07-29T14:15:07;9.43;;;8.43;;
57029;SDS011;42920;45.306;20.448;2022-07-29T14:17:33;11.07;;;7.93;;
57029;SDS011;42920;45.306;20.448;2022-07-29T14:19:59;10.75;;;8.63;;
57029;SDS011;42920;45.306;20.448;2022-07-29T14:22:25;10.65;;;8.82;;
57029;SDS011;42920;45.306;20.448;2022-07-29T14:24:51;12.38;;;8.82;;
57029;SDS011;42920;45.306;20.448;2022-07-29T14:27:17;9.70;;;8.70;;
57029;SDS011;42920;45.306;20.448;2022-07-29T14:29:43;10.02;;;8.13;;
57029;SDS011;42920;45.306;20.448;2022-07-29T14:32:09;16.95;;;14.90;;
57029;SDS011;42920;45.306;20.448;2022-07-29T14:34:35;13.52;;;8.18;;
57029;SDS011;42920;45.306;20.448;2022-07-29T14:37:02;12.75;;;8.23;;
57029;SDS011;42920;45.306;20.448;2022-07-29T14:39:30;9.73;;;8.25;;
57029;SDS011;42920;45.306;20.448;2022-07-29T14:41:56;9.68;;;8.73;;
57029;SDS011;42920;45.306;20.448;2022-07-29T14:44:22;13.18;;;9.30;;
57029;SDS011;42920;45.306;20.448;2022-07-29T14:46:49;9.40;;;8.40;;
57029;SDS011;42920;45.306;20.448;2022-07-29T14:49:14;9.60;;;8.52;;
57029;SDS011;42920;45.306;20.448;2022-07-29T14:51:40;10.32;;;8.75;;
57029;SDS011;42920;45.306;20.448;2022-07-29T14:54:06;11.73;;;9.52;;
57029;SDS011;42920;45.306;20.448;2022-07-29T14:56:32;12.95;;;11.65;;
57029;SDS011;42920;45.306;20.448;2022-07-29T14:58:58;11.07;;;8.75;;
57029;SDS011;42920;45.306;20.448;2022-07-29T15:01:24;28.25;;;23.15;;
57029;SDS011;42920;45.306;20.448;2022-07-29T15:03:50;10.27;;;9.00;;
57029;SDS011;42920;45.306;20.448;2022-07-29T15:06:16;9.90;;;8.90;;
57029;SDS011;42920;45.306;20.448;2022-07-29T15:08:42;9.70;;;8.38;;
57029;SDS011;42920;45.306;20.448;2022-07-29T15:11:07;19.20;;;13.68;;
57029;SDS011;42920;45.306;20.448;2022-07-29T15:13:34;13.60;;;12.20;;
57029;SDS011;42920;45.306;20.448;2022-07-29T15:16:08;9.65;;;8.45;;
57029;SDS011;42920;45.306;20.448;2022-07-29T15:18:35;11.25;;;9.23;;